Time;durP1;ratioP1;P1;durP2;ratioP2;P2;SDS_P1;SDS_P2;PMS_P1;PMS_P2;Temp;Humidity;BMP_temperature;BMP_pressure;BME280_temperature;BME280_humidity;BME280_pressure;Samples;Min_cycle;Max_cycle;Signal;HPM_P1;HPM_P2
2021/03/28 00:01:53;;;;;;;20.35;12.45;;;;;;;;;;4995003;28;20037;-49
2021/03/28 00:04:20;;;;;;;20.73;11.25;;;;;;;;;;4994749;28;20152;-52
2021/03/28 00:06:46;;;;;;;38.78;22.63;;;;;;;;;;4994717;28;20161;-51
2021/03/28 00:09:17;;;;;;;38.00;20.83;;;;;;;;;;4994911;28;20144;-49
2021/03/28 00:12:02;;;;;;;67.60;38.28;;;;;;;;;;4994120;28;21003;-52
2021/03/28 00:14:37;;;;;;;20.90;11.88;;;;;;;;;;4995235;28;20040;-50
2021/03/28 00:17:09;;;;;;;26.88;14.57;;;;;;;;;;4994914;28;20030;-49
2021/03/28 00:19:37;;;;;;;28.17;16.35;;;;;;;;;;4994790;28;20544;-49
2021/03/28 00:22:05;;;;;;;28.83;16.83;;;;;;;;;;4995370;28;20049;-48
2021/03/28 00:24:38;;;;;;;56.58;25.98;;;;;;;;;;4994778;28;20054;-51
2021/03/28 00:27:07;;;;;;;54.72;29.95;;;;;;;;;;4994721;28;20045;-47
2021/03/28 00:29:51;;;;;;;41.40;23.48;;;;;;;;;;4995232;28;20924;-48
2021/03/28 00:32:20;;;;;;;34.65;19.15;;;;;;;;;;4994369;28;20025;-50
2021/03/28 00:34:49;;;;;;;36.63;17.98;;;;;;;;;;4995420;28;20060;-51
2021/03/28 00:37:20;;;;;;;29.27;16.35;;;;;;;;;;4994321;28;20022;-51
2021/03/28 00:39:46;;;;;;;;;;;;;;;;;;5004634;28;20018;-47
2021/03/28 00:42:24;;;;;;;38.08;18.42;;;;;;;;;;5013967;28;20357;-46
2021/03/28 00:44:52;;;;;;;26.02;12.40;;;;;;;;;;5013980;28;20026;-46
2021/03/28 00:47:27;;;;;;;25.30;13.93;;;;;;;;;;5014255;28;20026;-46
2021/03/28 00:50:08;;;;;;;35.92;17.40;;;;;;;;;;5013919;28;20029;-47
2021/03/28 00:52:36;;;;;;;32.15;13.98;;;;;;;;;;5014084;28;20438;-46
2021/03/28 00:55:13;;;;;;;46.10;21.30;;;;;;;;;;5013970;28;20048;-46
2021/03/28 00:57:41;;;;;;;20.90;9.25;;;;;;;;;;5013789;28;20036;-46
2021/03/28 01:00:19;;;;;;;34.33;15.77;;;;;;;;;;5013776;28;20041;-46
2021/03/28 01:03:02;;;;;;;64.18;33.45;;;;;;;;;;5013765;28;20397;-46
2021/03/28 01:05:46;;;;;;;45.25;21.60;;;;;;;;;;5013644;28;20029;-47
2021/03/28 01:08:30;;;;;;;23.92;12.18;;;;;;;;;;5013669;28;20069;-48
2021/03/28 01:11:12;;;;;;;36.33;17.10;;;;;;;;;;5013727;28;20034;-47
2021/03/28 01:13:38;;;;;;;34.30;16.40;;;;;;;;;;5013621;28;20406;-47
2021/03/28 01:16:22;;;;;;;22.48;10.27;;;;;;;;;;5013722;28;20033;-46
2021/03/28 01:18:51;;;;;;;82.03;42.08;;;;;;;;;;5013716;28;20018;-47
2021/03/28 01:21:21;;;;;;;26.98;12.25;;;;;;;;;;5013562;28;20072;-47
2021/03/28 01:23:55;;;;;;;49.25;19.48;;;;;;;;;;5016575;28;20129;-47
2021/03/28 01:26:23;;;;;;;38.90;13.43;;;;;;;;;;5019783;28;20037;-48
2021/03/28 01:28:58;;;;;;;15.57;5.70;;;;;;;;;;5019970;28;20034;-48
2021/03/28 01:31:27;;;;;;;15.95;6.15;;;;;;;;;;5020031;28;20053;-48
2021/03/28 01:33:56;;;;;;;16.10;7.80;;;;;;;;;;5020157;28;20397;-48
2021/03/28 01:36:22;;;;;;;23.33;12.52;;;;;;;;;;5019924;28;20022;-47
2021/03/28 01:38:58;;;;;;;24.58;11.20;;;;;;;;;;5020034;28;20056;-47
2021/03/28 01:41:28;;;;;;;23.40;6.50;;;;;;;;;;5019869;28;20441;-47
2021/03/28 01:44:14;;;;;;;22.23;9.20;;;;;;;;;;5019909;28;20044;-47
2021/03/28 01:46:59;;;;;;;30.17;13.88;;;;;;;;;;5019917;28;20168;-47
2021/03/28 01:49:28;;;;;;;31.70;14.65;;;;;;;;;;5019989;28;20084;-48
2021/03/28 01:51:54;;;;;;;13.57;5.57;;;;;;;;;;5019714;28;20096;-47
2021/03/28 01:54:41;;;;;;;27.90;11.63;;;;;;;;;;5019939;28;20022;-47
2021/03/28 01:57:10;;;;;;;39.13;17.83;;;;;;;;;;5020000;28;20022;-50
2021/03/28 01:59:36;;;;;;;24.67;12.23;;;;;;;;;;5019813;28;20034;-49
2021/03/28 02:02:07;;;;;;;36.70;15.65;;;;;;;;;;5019678;28;20054;-48
2021/03/28 02:04:41;;;;;;;15.63;7.63;;;;;;;;;;5019603;28;20022;-49
2021/03/28 02:07:07;;;;;;;40.72;18.77;;;;;;;;;;5019547;28;20029;-46
2021/03/28 02:09:59;;;;;;;34.97;16.20;;;;;;;;;;5019934;28;20025;-47
2021/03/28 02:12:44;;;;;;;15.38;7.70;;;;;;;;;;5004198;28;20038;-49
2021/03/28 02:15:19;;;;;;;15.40;6.45;;;;;;;;;;5019597;28;20033;-46
2021/03/28 02:17:51;;;;;;;18.27;6.47;;;;;;;;;;5019792;28;20028;-48
2021/03/28 02:20:24;;;;;;;21.13;8.75;;;;;;;;;;5019720;28;20435;-49
2021/03/28 02:23:16;;;;;;;15.02;5.93;;;;;;;;;;5019599;28;20045;-49
2021/03/28 02:26:11;;;;;;;14.43;5.28;;;;;;;;;;5004177;28;20037;-48
2021/03/28 02:28:43;;;;;;;16.48;8.15;;;;;;;;;;4978272;28;20396;-48
2021/03/28 02:31:15;;;;;;;16.83;6.05;;;;;;;;;;4978511;28;20030;-48
2021/03/28 02:33:46;;;;;;;11.80;3.92;;;;;;;;;;4978350;28;20038;-47
2021/03/28 02:36:12;;;;;;;;;;;;;;;;;;4975030;28;20130;-48
2021/03/28 02:38:57;;;;;;;16.65;6.30;;;;;;;;;;4975350;28;20254;-47
2021/03/28 02:41:35;;;;;;;12.80;5.78;;;;;;;;;;4975411;28;20035;-48
2021/03/28 02:44:19;;;;;;;7.60;2.30;;;;;;;;;;4975115;28;20050;-48
2021/03/28 02:46:58;;;;;;;13.65;4.75;;;;;;;;;;4975421;28;20046;-48
2021/03/28 02:49:24;;;;;;;7.72;4.10;;;;;;;;;;4975044;28;20035;-48
2021/03/28 02:51:50;;;;;;;8.88;3.95;;;;;;;;;;4975071;28;20043;-48
2021/03/28 02:54:20;;;;;;;10.73;3.55;;;;;;;;;;4975063;28;20382;-48
2021/03/28 02:57:18;;;;;;;7.75;3.13;;;;;;;;;;4974803;28;20026;-48
2021/03/28 02:59:44;;;;;;;15.10;3.42;;;;;;;;;;4955775;29;20585;-47
2021/03/28 03:02:37;;;;;;;9.30;3.50;;;;;;;;;;4955425;28;20622;-47
2021/03/28 03:05:12;;;;;;;5.78;2.72;;;;;;;;;;4870801;29;20049;-48
2021/03/28 03:07:56;;;;;;;8.15;3.10;;;;;;;;;;4879606;29;20536;-47
2021/03/28 03:10:39;;;;;;;6.18;2.90;;;;;;;;;;4879775;29;20037;-48
2021/03/28 03:13:14;;;;;;;5.50;2.40;;;;;;;;;;4879770;29;20040;-48
2021/03/28 03:15:53;;;;;;;7.72;1.77;;;;;;;;;;4879529;29;20126;-47
2021/03/28 03:18:38;;;;;;;3.38;2.00;;;;;;;;;;4879559;29;20475;-47
2021/03/28 03:21:15;;;;;;;3.95;1.50;;;;;;;;;;4879493;29;20043;-48
2021/03/28 03:23:49;;;;;;;6.53;2.05;;;;;;;;;;4879466;29;20462;-48
2021/03/28 03:26:36;;;;;;;7.32;2.80;;;;;;;;;;4879466;29;20033;-48
2021/03/28 03:29:14;;;;;;;6.15;2.10;;;;;;;;;;4879440;29;20053;-54
2021/03/28 03:31:40;;;;;;;7.43;1.73;;;;;;;;;;4879599;29;20036;-48
2021/03/28 03:34:27;;;;;;;3.15;1.60;;;;;;;;;;4879328;29;20037;-47
2021/03/28 03:37:02;;;;;;;2.33;1.17;;;;;;;;;;4916732;29;20035;-47
2021/03/28 03:39:43;;;;;;;2.92;1.48;;;;;;;;;;4916857;29;20044;-47
2021/03/28 03:42:18;;;;;;;7.55;1.70;;;;;;;;;;4974419;28;20487;-48
2021/03/28 03:45:03;;;;;;;5.63;2.10;;;;;;;;;;5015333;28;20022;-47
2021/03/28 03:47:41;;;;;;;4.57;1.50;;;;;;;;;;5014831;28;20030;-49
2021/03/28 03:50:07;;;;;;;7.68;1.98;;;;;;;;;;5015070;28;20026;-48
2021/03/28 03:52:51;;;;;;;5.35;2.05;;;;;;;;;;5015086;28;20022;-51
2021/03/28 03:55:23;;;;;;;4.30;1.85;;;;;;;;;;5015119;28;20398;-48
2021/03/28 03:57:54;;;;;;;3.42;1.55;;;;;;;;;;5014698;28;20030;-48
2021/03/28 04:00:23;;;;;;;4.80;2.00;;;;;;;;;;5013612;28;20029;-48
2021/03/28 04:03:08;;;;;;;5.20;2.10;;;;;;;;;;5015089;28;20042;-49
2021/03/28 04:05:52;;;;;;;6.80;3.10;;;;;;;;;;5014859;28;20033;-48
2021/03/28 04:08:18;;;;;;;6.55;2.75;;;;;;;;;;5014605;28;20026;-48
2021/03/28 04:10:51;;;;;;;7.50;2.65;;;;;;;;;;5014609;28;20028;-48
2021/03/28 04:13:44;;;;;;;6.53;2.17;;;;;;;;;;5014782;28;20466;-48
2021/03/28 04:16:28;;;;;;;5.25;1.50;;;;;;;;;;5014463;28;20021;-47
2021/03/28 04:19:21;;;;;;;2.60;1.38;;;;;;;;;;5014359;28;20105;-47
2021/03/28 04:21:47;;;;;;;4.65;1.58;;;;;;;;;;5012526;28;20029;-47
2021/03/28 04:24:31;;;;;;;2.33;1.52;;;;;;;;;;5014664;28;20045;-48
2021/03/28 04:27:30;;;;;;;4.25;1.60;;;;;;;;;;5014276;28;20049;-48
2021/03/28 04:29:56;;;;;;;7.03;2.00;;;;;;;;;;4973398;28;20046;-48
2021/03/28 04:32:28;;;;;;;5.55;2.33;;;;;;;;;;4973166;28;20030;-47
2021/03/28 04:34:54;;;;;;;;;;;;;;;;;;4973500;28;20069;-47
2021/03/28 04:37:35;;;;;;;3.53;1.98;;;;;;;;;;4973218;28;19910;-48
2021/03/28 04:40:07;;;;;;;5.18;2.25;;;;;;;;;;4973278;28;20046;-48
2021/03/28 04:42:39;;;;;;;4.75;2.45;;;;;;;;;;4973208;28;20046;-47
2021/03/28 04:45:24;;;;;;;11.88;2.92;;;;;;;;;;4973122;28;20122;-48
2021/03/28 04:47:59;;;;;;;3.63;2.20;;;;;;;;;;4973034;28;20059;-48
2021/03/28 04:50:40;;;;;;;8.45;2.38;;;;;;;;;;4972944;28;20031;-47
2021/03/28 04:53:15;;;;;;;3.95;2.10;;;;;;;;;;4973012;28;20107;-47
2021/03/28 04:55:44;;;;;;;3.97;2.30;;;;;;;;;;4972796;28;20384;-47
2021/03/28 04:58:24;;;;;;;7.00;2.30;;;;;;;;;;4972099;28;20109;-48
2021/03/28 05:00:58;;;;;;;9.05;2.38;;;;;;;;;;4972719;28;20549;-47
2021/03/28 05:03:43;;;;;;;3.42;1.83;;;;;;;;;;4972819;28;20039;-47
2021/03/28 05:06:28;;;;;;;5.85;2.22;;;;;;;;;;5004356;28;20046;-48
2021/03/28 05:08:57;;;;;;;4.35;2.45;;;;;;;;;;5013862;28;20030;-46
2021/03/28 05:11:32;;;;;;;5.63;2.47;;;;;;;;;;5013611;28;20101;-47
2021/03/28 05:14:09;;;;;;;4.97;2.60;;;;;;;;;;5013652;28;20339;-49
2021/03/28 05:16:38;;;;;;;6.03;2.80;;;;;;;;;;5013799;28;20018;-48
2021/03/28 05:19:10;;;;;;;11.43;4.07;;;;;;;;;;5013639;28;20026;-47
2021/03/28 05:21:55;;;;;;;12.40;6.00;;;;;;;;;;5013604;28;20044;-47
2021/03/28 05:24:39;;;;;;;16.55;5.95;;;;;;;;;;5013597;28;20077;-48
2021/03/28 05:27:18;;;;;;;14.10;6.53;;;;;;;;;;5013314;28;20371;-49
2021/03/28 05:29:46;;;;;;;12.02;5.97;;;;;;;;;;5013607;28;20052;-49
2021/03/28 05:32:22;;;;;;;11.60;5.50;;;;;;;;;;5013554;28;20115;-49
2021/03/28 05:34:57;;;;;;;13.73;5.05;;;;;;;;;;5013601;28;20018;-49
2021/03/28 05:37:41;;;;;;;7.53;3.88;;;;;;;;;;5013387;28;20022;-49
2021/03/28 05:40:13;;;;;;;8.45;4.13;;;;;;;;;;5013386;28;20022;-49
2021/03/28 05:42:53;;;;;;;9.23;3.60;;;;;;;;;;5013390;28;20034;-50
2021/03/28 05:45:25;;;;;;;6.60;3.28;;;;;;;;;;5013563;28;20030;-49
2021/03/28 05:47:51;;;;;;;5.78;2.90;;;;;;;;;;5013482;28;20101;-48
2021/03/28 05:50:17;;;;;;;6.28;2.85;;;;;;;;;;5013469;28;20037;-47
2021/03/28 05:52:43;;;;;;;6.63;2.70;;;;;;;;;;5013237;28;20037;-49
2021/03/28 05:55:18;;;;;;;6.35;2.47;;;;;;;;;;5013368;28;20018;-48
2021/03/28 05:57:50;;;;;;;5.05;3.05;;;;;;;;;;5013012;28;20045;-47
2021/03/28 06:00:33;;;;;;;6.82;3.00;;;;;;;;;;5013440;28;20026;-49
2021/03/28 06:03:15;;;;;;;10.70;6.00;;;;;;;;;;5013277;28;20044;-47
2021/03/28 06:05:59;;;;;;;12.77;6.45;;;;;;;;;;5013116;28;20061;-51
2021/03/28 06:08:50;;;;;;;17.10;7.25;;;;;;;;;;5013078;28;20030;-47
2021/03/28 06:11:23;;;;;;;13.75;7.50;;;;;;;;;;5015613;28;20124;-47
2021/03/28 06:14:07;;;;;;;10.05;5.88;;;;;;;;;;5016925;28;20053;-47
2021/03/28 06:16:52;;;;;;;12.57;6.13;;;;;;;;;;5016812;28;20025;-47
2021/03/28 06:19:21;;;;;;;15.18;6.03;;;;;;;;;;5017059;28;20026;-48
2021/03/28 06:22:15;;;;;;;11.07;5.07;;;;;;;;;;5016980;28;20508;-50
2021/03/28 06:25:02;;;;;;;16.02;5.70;;;;;;;;;;5001185;28;20034;-47
2021/03/28 06:27:49;;;;;;;19.45;6.40;;;;;;;;;;5016481;28;20131;-47
2021/03/28 06:30:33;;;;;;;10.77;6.07;;;;;;;;;;5016883;28;20409;-47
2021/03/28 06:33:12;;;;;;;12.55;5.45;;;;;;;;;;5016519;28;20108;-49
2021/03/28 06:35:38;;;;;;;11.80;5.82;;;;;;;;;;5016570;28;20363;-49
2021/03/28 06:38:10;;;;;;;10.65;5.13;;;;;;;;;;5016538;28;20386;-48
2021/03/28 06:40:40;;;;;;;15.95;6.80;;;;;;;;;;5016436;28;20022;-49
2021/03/28 06:43:16;;;;;;;14.32;7.25;;;;;;;;;;5016372;28;20026;-48
2021/03/28 06:45:49;;;;;;;12.27;5.90;;;;;;;;;;5016352;28;20030;-47
2021/03/28 06:48:35;;;;;;;12.00;5.53;;;;;;;;;;5016309;28;20367;-49
2021/03/28 06:51:06;;;;;;;13.95;4.85;;;;;;;;;;5016551;28;20029;-50
2021/03/28 06:53:44;;;;;;;9.77;4.45;;;;;;;;;;5016086;28;20057;-48
2021/03/28 06:56:28;;;;;;;11.93;4.80;;;;;;;;;;5016286;28;20030;-47
2021/03/28 06:58:54;;;;;;;9.85;4.97;;;;;;;;;;5016242;28;20030;-47
2021/03/28 07:01:38;;;;;;;15.25;7.13;;;;;;;;;;5016179;28;20125;-50
2021/03/28 07:04:16;;;;;;;14.90;6.70;;;;;;;;;;5015997;28;20042;-50
2021/03/28 07:07:01;;;;;;;17.23;7.05;;;;;;;;;;5016094;28;20065;-50
2021/03/28 07:09:27;;;;;;;12.50;7.22;;;;;;;;;;5015792;28;20026;-49
2021/03/28 07:12:06;;;;;;;11.45;6.65;;;;;;;;;;5016136;28;20030;-47
2021/03/28 07:14:50;;;;;;;10.48;6.32;;;;;;;;;;5015711;28;20048;-49
2021/03/28 07:17:28;;;;;;;13.18;6.03;;;;;;;;;;5015664;28;20025;-50
2021/03/28 07:20:13;;;;;;;12.98;7.07;;;;;;;;;;5015561;28;20030;-49
2021/03/28 07:22:39;;;;;;;33.90;14.65;;;;;;;;;;5014714;28;20034;-49
2021/03/28 07:25:11;;;;;;;23.15;13.02;;;;;;;;;;5015671;28;20026;-48
2021/03/28 07:27:56;;;;;;;14.00;6.90;;;;;;;;;;5015296;28;20048;-50
2021/03/28 07:30:42;;;;;;;20.92;9.60;;;;;;;;;;5015586;28;20049;-48
2021/03/28 07:33:27;;;;;;;31.73;15.70;;;;;;;;;;5015478;28;20026;-49
2021/03/28 07:36:02;;;;;;;14.63;7.10;;;;;;;;;;5015280;28;20022;-49
2021/03/28 07:38:37;;;;;;;18.17;8.65;;;;;;;;;;5015163;28;20482;-48
2021/03/28 07:41:22;;;;;;;18.20;10.00;;;;;;;;;;5015371;28;20036;-49
2021/03/28 07:43:54;;;;;;;11.65;6.38;;;;;;;;;;5015315;28;20041;-48
2021/03/28 07:46:38;;;;;;;16.05;7.05;;;;;;;;;;5015179;28;20402;-48
2021/03/28 07:49:23;;;;;;;10.15;5.45;;;;;;;;;;5014981;28;20481;-48
2021/03/28 07:52:07;;;;;;;13.40;6.30;;;;;;;;;;5014943;28;20026;-48
2021/03/28 07:54:52;;;;;;;10.85;5.97;;;;;;;;;;5014898;28;20030;-48
2021/03/28 07:57:34;;;;;;;13.45;6.40;;;;;;;;;;5014668;28;20029;-48
2021/03/28 08:00:33;;;;;;;12.88;5.18;;;;;;;;;;5015047;28;20038;-48
2021/03/28 08:03:01;;;;;;;12.68;4.57;;;;;;;;;;4973503;28;20057;-48
2021/03/28 08:05:48;;;;;;;14.73;7.25;;;;;;;;;;4973772;28;20039;-48
2021/03/28 08:08:32;;;;;;;33.20;17.55;;;;;;;;;;4954179;29;20054;-50
2021/03/28 08:11:01;;;;;;;22.75;8.52;;;;;;;;;;4954257;29;20043;-49
2021/03/28 08:13:36;;;;;;;35.40;12.82;;;;;;;;;;4954108;29;20395;-48
2021/03/28 08:16:14;;;;;;;25.90;12.63;;;;;;;;;;4954137;29;20171;-47
2021/03/28 08:18:55;;;;;;;32.70;12.23;;;;;;;;;;4954104;29;20130;-48
2021/03/28 08:21:21;;;;;;;;;;;;;;;;;;4954400;29;20039;-47
2021/03/28 08:23:50;;;;;;;24.17;10.30;;;;;;;;;;4953762;29;19969;-50
2021/03/28 08:26:36;;;;;;;217.68;123.35;;;;;;;;;;4953829;29;20073;-49
2021/03/28 08:29:22;;;;;;;168.85;91.13;;;;;;;;;;4953854;29;20062;-50
2021/03/28 08:31:57;;;;;;;113.53;51.28;;;;;;;;;;4953765;29;20039;-49
2021/03/28 08:34:33;;;;;;;20.15;9.52;;;;;;;;;;4953075;28;20073;-50
2021/03/28 08:37:06;;;;;;;45.42;16.67;;;;;;;;;;4953644;29;20035;-51
2021/03/28 08:39:47;;;;;;;30.80;12.40;;;;;;;;;;4970355;28;20102;-54
2021/03/28 08:42:32;;;;;;;183.73;95.90;;;;;;;;;;4972791;28;20117;-53
2021/03/28 08:45:19;;;;;;;219.20;95.25;;;;;;;;;;4986393;28;20049;-53
2021/03/28 08:47:45;;;;;;;545.03;349.45;;;;;;;;;;5013944;28;20033;-54
2021/03/28 08:50:11;;;;;;;86.80;49.20;;;;;;;;;;5013979;28;20054;-53
2021/03/28 08:52:43;;;;;;;46.00;26.38;;;;;;;;;;5013990;28;20050;-52
2021/03/28 08:55:29;;;;;;;36.60;19.33;;;;;;;;;;5013830;28;20033;-53
2021/03/28 08:58:14;;;;;;;32.95;14.57;;;;;;;;;;5012669;28;20496;-53
2021/03/28 09:00:48;;;;;;;106.72;49.63;;;;;;;;;;5013957;28;20065;-52
2021/03/28 09:03:33;;;;;;;48.10;22.98;;;;;;;;;;5013572;28;20034;-51
2021/03/28 09:06:06;;;;;;;36.67;17.05;;;;;;;;;;5013700;28;20073;-53
2021/03/28 09:08:50;;;;;;;37.05;15.52;;;;;;;;;;5013751;28;20022;-54
2021/03/28 09:11:25;;;;;;;21.58;7.75;;;;;;;;;;5013737;28;20053;-55
2021/03/28 09:13:54;;;;;;;25.35;11.32;;;;;;;;;;5013735;28;20030;-55
2021/03/28 09:16:25;;;;;;;19.45;8.40;;;;;;;;;;5013445;28;20044;-52
2021/03/28 09:19:15;;;;;;;32.92;15.20;;;;;;;;;;5013524;28;20064;-55
2021/03/28 09:21:41;;;;;;;28.48;12.45;;;;;;;;;;5014000;28;20036;-54
2021/03/28 09:24:08;;;;;;;29.10;9.85;;;;;;;;;;5013632;28;20034;-52
2021/03/28 09:26:40;;;;;;;39.78;16.17;;;;;;;;;;5013127;28;20022;-55
2021/03/28 09:29:16;;;;;;;75.80;34.83;;;;;;;;;;5013534;28;20042;-50
2021/03/28 09:31:42;;;;;;;45.03;18.33;;;;;;;;;;5013518;28;20034;-51
2021/03/28 09:34:23;;;;;;;24.23;9.90;;;;;;;;;;5013254;28;20053;-50
2021/03/28 09:36:57;;;;;;;38.63;7.53;;;;;;;;;;5013522;28;20037;-54
2021/03/28 09:39:26;;;;;;;28.50;11.52;;;;;;;;;;5013377;28;20379;-53
2021/03/28 09:42:05;;;;;;;32.65;10.63;;;;;;;;;;5013563;28;20382;-52
2021/03/28 09:44:31;;;;;;;30.20;11.85;;;;;;;;;;5014322;28;20025;-52
2021/03/28 09:46:57;;;;;;;44.25;18.85;;;;;;;;;;5017284;28;20033;-55
2021/03/28 09:49:52;;;;;;;17.20;7.13;;;;;;;;;;5017237;28;20022;-56
2021/03/28 09:52:37;;;;;;;26.42;10.93;;;;;;;;;;5017065;28;20014;-50
2021/03/28 09:55:18;;;;;;;24.25;10.90;;;;;;;;;;5017058;28;20389;-52
2021/03/28 09:57:50;;;;;;;25.33;14.52;;;;;;;;;;5017016;28;20370;-55
2021/03/28 10:00:43;;;;;;;44.05;25.58;;;;;;;;;;5015794;28;20041;-53
2021/03/28 10:03:18;;;;;;;16.20;7.50;;;;;;;;;;5015031;28;20087;-53
2021/03/28 10:05:44;;;;;;;38.80;16.67;;;;;;;;;;5017195;28;20105;-53
2021/03/28 10:08:10;;;;;;;32.15;15.30;;;;;;;;;;5016868;28;20561;-54
2021/03/28 10:10:40;;;;;;;26.95;14.00;;;;;;;;;;5016740;28;20080;-55
2021/03/28 10:13:06;;;;;;;29.25;15.77;;;;;;;;;;5016720;28;20026;-54
2021/03/28 10:15:33;;;;;;;29.40;14.98;;;;;;;;;;5016710;28;20029;-55
2021/03/28 10:18:14;;;;;;;29.48;14.82;;;;;;;;;;5016582;28;20030;-53
2021/03/28 10:20:40;;;;;;;;;;;;;;;;;;5017047;28;20022;-52
2021/03/28 10:23:06;;;;;;;17.52;9.98;;;;;;;;;;5016329;28;20021;-55
2021/03/28 10:25:45;;;;;;;21.25;10.98;;;;;;;;;;5016676;28;20524;-55
2021/03/28 10:28:35;;;;;;;32.30;15.50;;;;;;;;;;5016284;28;20057;-55
2021/03/28 10:31:19;;;;;;;67.15;36.42;;;;;;;;;;4975539;28;20486;-54
2021/03/28 10:33:48;;;;;;;26.88;14.75;;;;;;;;;;4975327;28;20022;-52
2021/03/28 10:36:35;;;;;;;36.42;17.73;;;;;;;;;;4975317;28;20086;-54
2021/03/28 10:39:10;;;;;;;20.80;9.77;;;;;;;;;;4975020;28;20030;-54
2021/03/28 10:41:36;;;;;;;24.23;13.38;;;;;;;;;;4975116;28;20152;-55
2021/03/28 10:44:02;;;;;;;36.88;17.02;;;;;;;;;;4974874;28;20062;-57
2021/03/28 10:46:34;;;;;;;28.42;13.20;;;;;;;;;;4975197;28;20027;-56
2021/03/28 10:49:06;;;;;;;15.38;7.68;;;;;;;;;;4975104;28;20063;-54
2021/03/28 10:51:32;;;;;;;14.65;6.85;;;;;;;;;;4975012;28;20105;-57
2021/03/28 10:54:12;;;;;;;15.85;8.05;;;;;;;;;;4974944;28;20213;-56
2021/03/28 10:56:57;;;;;;;22.75;8.18;;;;;;;;;;4974193;28;20039;-56
2021/03/28 10:59:42;;;;;;;14.88;7.05;;;;;;;;;;4974966;28;20038;-56
2021/03/28 11:02:23;;;;;;;24.00;11.27;;;;;;;;;;4974831;28;20071;-55
2021/03/28 11:04:49;;;;;;;;;;;;;;;;;;4975112;28;20038;-51
2021/03/28 11:07:27;;;;;;;34.28;10.88;;;;;;;;;;4982103;28;19906;-55
2021/03/28 11:10:12;;;;;;;25.77;6.72;;;;;;;;;;5015596;28;20021;-56
2021/03/28 11:12:38;;;;;;;13.88;6.03;;;;;;;;;;5014936;28;20048;-54
2021/03/28 11:15:22;;;;;;;20.08;9.40;;;;;;;;;;5016553;28;20112;-52
2021/03/28 11:17:51;;;;;;;17.65;9.05;;;;;;;;;;5035292;28;20466;-56
2021/03/28 11:20:20;;;;;;;20.63;9.55;;;;;;;;;;5035372;28;20030;-54
2021/03/28 11:22:49;;;;;;;18.55;8.80;;;;;;;;;;5035131;28;20478;-53
2021/03/28 11:25:15;;;;;;;32.45;9.15;;;;;;;;;;5035217;28;20021;-56
2021/03/28 11:27:41;;;;;;;30.70;14.73;;;;;;;;;;5035137;28;20046;-55
2021/03/28 11:30:13;;;;;;;23.15;10.18;;;;;;;;;;5035198;28;20032;-55
2021/03/28 11:32:58;;;;;;;24.75;11.50;;;;;;;;;;5035435;28;20022;-54
2021/03/28 11:35:39;;;;;;;16.15;6.90;;;;;;;;;;5035114;28;20022;-54
2021/03/28 11:38:18;;;;;;;17.63;6.88;;;;;;;;;;5034891;28;20466;-54
2021/03/28 11:40:47;;;;;;;99.20;49.97;;;;;;;;;;5035110;28;20037;-55
2021/03/28 11:43:13;;;;;;;70.80;36.45;;;;;;;;;;5034815;28;20021;-55
2021/03/28 11:45:45;;;;;;;26.40;14.75;;;;;;;;;;5034488;28;20029;-54
2021/03/28 11:48:29;;;;;;;21.45;11.15;;;;;;;;;;5034796;28;20107;-54
2021/03/28 11:50:59;;;;;;;84.43;53.50;;;;;;;;;;5034798;28;20028;-54
2021/03/28 11:53:25;;;;;;;47.65;25.45;;;;;;;;;;5034554;28;20033;-53
2021/03/28 11:55:56;;;;;;;56.30;32.60;;;;;;;;;;5034465;28;20060;-53
2021/03/28 11:58:22;;;;;;;27.63;13.00;;;;;;;;;;5026386;28;20037;-53
2021/03/28 12:00:50;;;;;;;39.83;20.02;;;;;;;;;;4996303;28;20440;-54
2021/03/28 12:03:22;;;;;;;68.45;37.60;;;;;;;;;;4995172;28;20037;-57
2021/03/28 12:05:57;;;;;;;71.15;38.75;;;;;;;;;;4994950;28;20029;-54
2021/03/28 12:08:26;;;;;;;122.55;71.97;;;;;;;;;;4995485;28;20885;-54
2021/03/28 12:10:53;;;;;;;82.63;52.70;;;;;;;;;;4995020;28;20061;-52
2021/03/28 12:13:45;;;;;;;17.65;9.55;;;;;;;;;;4995104;28;20055;-54
2021/03/28 12:16:12;;;;;;;43.75;21.60;;;;;;;;;;4993061;28;20042;-53
2021/03/28 12:18:43;;;;;;;26.65;14.25;;;;;;;;;;4994961;28;20948;-57
2021/03/28 12:21:09;;;;;;;24.70;12.65;;;;;;;;;;4994412;28;20080;-55
2021/03/28 12:23:57;;;;;;;46.42;27.48;;;;;;;;;;4995052;28;21455;-54
2021/03/28 12:26:27;;;;;;;25.38;13.32;;;;;;;;;;4994768;28;20036;-53
2021/03/28 12:29:04;;;;;;;57.92;31.63;;;;;;;;;;4994028;28;20079;-54
2021/03/28 12:31:30;;;;;;;52.65;33.47;;;;;;;;;;4993738;28;20025;-55
2021/03/28 12:34:09;;;;;;;37.63;20.52;;;;;;;;;;4994182;28;20080;-54
2021/03/28 12:37:05;;;;;;;78.90;41.17;;;;;;;;;;4994153;28;20025;-58
2021/03/28 12:39:34;;;;;;;30.67;17.67;;;;;;;;;;4976067;28;20482;-56
2021/03/28 12:42:03;;;;;;;35.97;18.52;;;;;;;;;;4994766;28;20433;-58
2021/03/28 12:44:31;;;;;;;40.00;21.58;;;;;;;;;;4994290;28;20037;-57
2021/03/28 12:47:00;;;;;;;26.98;14.48;;;;;;;;;;4994531;28;20054;-57
2021/03/28 12:49:31;;;;;;;19.27;10.70;;;;;;;;;;4994198;28;20130;-57
2021/03/28 12:52:21;;;;;;;23.27;11.80;;;;;;;;;;4994340;28;20026;-57
2021/03/28 12:54:50;;;;;;;15.98;7.35;;;;;;;;;;4904858;29;20854;-58
2021/03/28 12:57:34;;;;;;;24.70;8.23;;;;;;;;;;4904905;29;20348;-60
2021/03/28 13:00:01;;;;;;;19.38;9.43;;;;;;;;;;4907205;29;20456;-56
2021/03/28 13:02:36;;;;;;;30.45;12.07;;;;;;;;;;4904869;29;20059;-60
2021/03/28 13:05:22;;;;;;;21.48;6.65;;;;;;;;;;4904716;29;20618;-58
2021/03/28 13:07:53;;;;;;;15.25;7.78;;;;;;;;;;4901591;29;20039;-58
2021/03/28 13:12:54;;;;;;;16.35;5.72;;;;;;;;;;5165597;23;20068;-58
2021/03/28 13:15:27;;;;;;;8.00;3.05;;;;;;;;;;4994782;28;20868;-58
2021/03/28 13:18:16;;;;;;;17.38;6.40;;;;;;;;;;4995203;28;20329;-58
2021/03/28 13:20:44;;;;;;;5.90;2.88;;;;;;;;;;4932578;28;20110;-58
2021/03/28 13:23:23;;;;;;;13.45;5.15;;;;;;;;;;4932534;28;20074;-59
2021/03/28 13:26:05;;;;;;;11.93;4.78;;;;;;;;;;4932310;28;20154;-58
2021/03/28 13:28:32;;;;;;;16.83;6.10;;;;;;;;;;4933156;28;20617;-58
2021/03/28 13:31:13;;;;;;;13.85;6.13;;;;;;;;;;4933068;28;20031;-58
2021/03/28 13:33:42;;;;;;;9.90;5.00;;;;;;;;;;4933165;28;20027;-58
2021/03/28 13:36:22;;;;;;;9.65;5.32;;;;;;;;;;4933105;28;20035;-57
2021/03/28 13:39:15;;;;;;;17.48;8.27;;;;;;;;;;4933017;28;20050;-57
2021/03/28 13:41:49;;;;;;;12.38;7.22;;;;;;;;;;4930427;28;20047;-58
2021/03/28 13:44:15;;;;;;;17.95;9.93;;;;;;;;;;4932410;28;20178;-57
2021/03/28 13:46:50;;;;;;;17.42;7.13;;;;;;;;;;4932831;28;20036;-57
2021/03/28 13:49:30;;;;;;;16.73;7.32;;;;;;;;;;4932699;28;20837;-57
2021/03/28 13:52:12;;;;;;;15.55;6.20;;;;;;;;;;4933309;28;20039;-57
2021/03/28 13:54:41;;;;;;;16.23;6.43;;;;;;;;;;4932816;28;21103;-57
2021/03/28 13:57:10;;;;;;;23.08;6.82;;;;;;;;;;4946643;28;20076;-57
2021/03/28 13:59:56;;;;;;;16.98;4.72;;;;;;;;;;4994101;28;20100;-56
2021/03/28 14:02:24;;;;;;;20.98;5.55;;;;;;;;;;4994946;28;20837;-56
2021/03/28 14:04:59;;;;;;;18.55;7.35;;;;;;;;;;4994571;28;20092;-57
2021/03/28 14:07:25;;;;;;;14.38;5.82;;;;;;;;;;4995036;28;20030;-57
2021/03/28 14:09:55;;;;;;;12.88;5.38;;;;;;;;;;4994299;28;20033;-57
2021/03/28 14:12:23;;;;;;;9.95;4.82;;;;;;;;;;4994594;28;20049;-57
2021/03/28 14:14:50;;;;;;;14.73;5.60;;;;;;;;;;4994309;28;20029;-57
2021/03/28 14:17:21;;;;;;;10.27;4.53;;;;;;;;;;4994249;28;20521;-58
2021/03/28 14:19:48;;;;;;;20.23;9.90;;;;;;;;;;4994394;28;20026;-58
2021/03/28 14:22:27;;;;;;;12.30;7.10;;;;;;;;;;4993937;28;20025;-57
2021/03/28 14:24:55;;;;;;;13.75;7.05;;;;;;;;;;4994268;28;20091;-57
2021/03/28 14:27:32;;;;;;;12.68;6.85;;;;;;;;;;4995209;28;20360;-57
2021/03/28 14:30:19;;;;;;;31.55;9.93;;;;;;;;;;4994683;28;20133;-57
2021/03/28 14:32:47;;;;;;;22.40;11.43;;;;;;;;;;4997312;28;20449;-57
2021/03/28 14:35:13;;;;;;;27.25;14.63;;;;;;;;;;4997933;28;20663;-58
2021/03/28 14:37:41;;;;;;;30.83;14.57;;;;;;;;;;4997890;28;20037;-57
2021/03/28 14:40:24;;;;;;;19.17;9.63;;;;;;;;;;4997810;28;20061;-57
2021/03/28 14:43:03;;;;;;;16.52;7.60;;;;;;;;;;4997765;28;20726;-57
2021/03/28 14:45:29;;;;;;;22.98;10.25;;;;;;;;;;4997766;28;20477;-57
2021/03/28 14:48:07;;;;;;;19.50;9.38;;;;;;;;;;4997422;28;20009;-57
2021/03/28 14:50:43;;;;;;;20.95;10.40;;;;;;;;;;4997454;28;20329;-57
2021/03/28 14:53:24;;;;;;;13.82;6.78;;;;;;;;;;4997345;28;20032;-57
2021/03/28 14:56:00;;;;;;;12.70;6.95;;;;;;;;;;5010179;28;20826;-57
2021/03/28 14:58:45;;;;;;;23.88;10.10;;;;;;;;;;4997457;28;20144;-58
2021/03/28 15:01:25;;;;;;;23.27;7.57;;;;;;;;;;4997744;28;20065;-56
2021/03/28 15:03:57;;;;;;;14.57;6.22;;;;;;;;;;4997126;28;20073;-57
2021/03/28 15:06:35;;;;;;;13.48;6.13;;;;;;;;;;4996693;28;20029;-58
2021/03/28 15:09:03;;;;;;;100.30;55.38;;;;;;;;;;4996894;28;20029;-54
2021/03/28 15:11:37;;;;;;;155.27;96.45;;;;;;;;;;4996711;28;20045;-47
2021/03/28 15:14:23;;;;;;;63.25;31.05;;;;;;;;;;4996848;28;20029;-48
2021/03/28 15:17:04;;;;;;;420.08;183.32;;;;;;;;;;4997134;28;20050;-47
2021/03/28 15:19:38;;;;;;;305.23;177.05;;;;;;;;;;4997912;28;20096;-51
2021/03/28 15:22:05;;;;;;;582.60;388.38;;;;;;;;;;4996669;28;20108;-47